Time;durP1;ratioP1;P1;durP2;ratioP2;P2;SDS_P1;SDS_P2;PMS_P1;PMS_P2;Temp;Humidity;BMP_temperature;BMP_pressure;BME280_temperature;BME280_humidity;BME280_pressure;Samples;Min_cycle;Max_cycle;Signal;HPM_P1;HPM_P2
2023/12/11 00:00:36;;;;;;;2.53;0.52;;;9.10;99.90;;;;;;5040793;28;20294;-69
2023/12/11 00:03:04;;;;;;;1.10;0.47;;;9.10;99.90;;;;;;5028481;28;20284;-70
2023/12/11 00:05:32;;;;;;;6.53;0.40;;;9.10;99.90;;;;;;5044098;28;20221;-70
2023/12/11 00:08:00;;;;;;;0.50;0.40;;;9.20;99.90;;;;;;5042580;28;20629;-70
2023/12/11 00:10:28;;;;;;;2.05;0.50;;;9.10;99.90;;;;;;5041066;28;20249;-70
2023/12/11 00:12:57;;;;;;;0.80;0.32;;;9.20;99.90;;;;;;5042858;28;20313;-70
2023/12/11 00:15:25;;;;;;;0.80;0.57;;;9.20;99.90;;;;;;5044569;28;20197;-69
2023/12/11 00:17:53;;;;;;;1.00;0.47;;;9.20;99.90;;;;;;5043203;28;20265;-70
2023/12/11 00:20:21;;;;;;;0.77;0.40;;;9.20;99.90;;;;;;5030510;28;20814;-70
2023/12/11 00:22:49;;;;;;;1.25;0.30;;;9.20;99.90;;;;;;5036212;28;20476;-70
2023/12/11 00:25:17;;;;;;;1.63;0.47;;;9.20;99.90;;;;;;5043869;28;20593;-70
2023/12/11 00:27:44;;;;;;;4.28;0.40;;;9.20;99.90;;;;;;5043362;28;20249;-69
2023/12/11 00:30:15;;;;;;;2.92;0.60;;;9.20;99.90;;;;;;5040762;28;20199;-70
2023/12/11 00:32:43;;;;;;;1.42;0.70;;;9.20;99.90;;;;;;5040726;28;20218;-70
2023/12/11 00:35:11;;;;;;;10.52;0.88;;;9.20;99.90;;;;;;5043406;28;20293;-70
2023/12/11 00:37:39;;;;;;;4.75;0.70;;;9.20;99.90;;;;;;5043487;28;20689;-70
2023/12/11 00:40:08;;;;;;;5.50;0.90;;;9.20;99.90;;;;;;5039212;28;20212;-70
2023/12/11 00:42:36;;;;;;;3.63;0.77;;;9.20;99.90;;;;;;5040118;28;20214;-71
2023/12/11 00:45:05;;;;;;;2.75;0.70;;;9.20;99.90;;;;;;5043342;28;20676;-70
2023/12/11 00:47:34;;;;;;;3.00;0.50;;;9.20;99.90;;;;;;5040795;28;20221;-70
2023/12/11 00:50:03;;;;;;;4.75;1.30;;;9.20;99.90;;;;;;5036208;28;20220;-70
2023/12/11 00:52:34;;;;;;;6.78;0.90;;;9.20;99.90;;;;;;5039313;28;20695;-70
2023/12/11 00:55:02;;;;;;;7.00;0.82;;;9.20;99.90;;;;;;5040454;28;20742;-70
2023/12/11 00:57:30;;;;;;;2.28;0.60;;;9.20;99.90;;;;;;5043321;28;20225;-69
2023/12/11 00:59:58;;;;;;;2.80;0.80;;;9.20;99.90;;;;;;5041946;28;20202;-69
2023/12/11 01:02:26;;;;;;;2.42;0.65;;;9.20;99.90;;;;;;5040104;28;20207;-70
2023/12/11 01:04:56;;;;;;;2.92;0.85;;;9.10;99.90;;;;;;5033856;28;20664;-70
2023/12/11 01:07:24;;;;;;;5.65;1.20;;;9.10;99.90;;;;;;5046945;28;20225;-69
2023/12/11 01:09:52;;;;;;;2.92;0.60;;;9.10;99.90;;;;;;5046364;28;20241;-70
2023/12/11 01:12:20;;;;;;;4.63;0.73;;;9.10;99.90;;;;;;5043663;28;20655;-70
2023/12/11 01:14:48;;;;;;;0.88;0.70;;;9.00;99.90;;;;;;5044160;28;20335;-69
2023/12/11 01:17:16;;;;;;;3.10;0.68;;;9.00;99.90;;;;;;5047220;28;20225;-69
2023/12/11 01:20:07;;;;;;;3.60;1.00;;;9.00;99.90;;;;;;5044902;28;20575;-69
2023/12/11 01:22:35;;;;;;;3.58;0.70;;;9.00;99.90;;;;;;5043857;28;20207;-70
2023/12/11 01:25:03;;;;;;;5.20;0.50;;;9.00;99.90;;;;;;5037861;28;20202;-70
2023/12/11 01:27:31;;;;;;;1.63;0.82;;;9.00;99.90;;;;;;5046578;28;20707;-70
2023/12/11 01:29:59;;;;;;;6.13;0.82;;;9.00;99.90;;;;;;5044801;28;20706;-70
2023/12/11 01:32:28;;;;;;;3.83;0.70;;;9.00;99.90;;;;;;5043131;28;20671;-70
2023/12/11 01:34:56;;;;;;;6.22;0.70;;;9.00;99.90;;;;;;5044759;28;20238;-70
2023/12/11 01:37:25;;;;;;;1.10;0.40;;;9.00;99.90;;;;;;5068993;22;20229;-59
2023/12/11 01:39:53;;;;;;;1.45;0.52;;;8.90;99.90;;;;;;5053637;28;20251;-61
2023/12/11 01:42:20;;;;;;;3.40;0.80;;;9.00;99.90;;;;;;5062503;22;20552;-59
2023/12/11 01:44:48;;;;;;;3.60;0.50;;;9.00;99.90;;;;;;5066969;28;20233;-59
2023/12/11 01:47:16;;;;;;;5.40;0.80;;;9.00;99.90;;;;;;5066201;28;20232;-59
2023/12/11 01:49:44;;;;;;;3.03;0.60;;;9.00;99.90;;;;;;5065935;28;20233;-60
2023/12/11 01:52:12;;;;;;;1.67;0.43;;;9.00;99.90;;;;;;5062085;28;20237;-60
2023/12/11 01:54:41;;;;;;;1.85;0.60;;;9.00;99.90;;;;;;5062352;28;20229;-58
2023/12/11 01:57:09;;;;;;;3.58;0.93;;;9.00;99.90;;;;;;5046073;28;20225;-57
2023/12/11 01:59:37;;;;;;;1.55;0.50;;;9.00;99.90;;;;;;5054267;28;20206;-60
2023/12/11 02:02:05;;;;;;;1.80;0.55;;;9.00;99.90;;;;;;5062392;28;20217;-57
2023/12/11 02:04:33;;;;;;;2.08;0.63;;;9.00;99.90;;;;;;5062449;28;20259;-58
2023/12/11 02:07:01;;;;;;;1.13;0.50;;;9.00;99.90;;;;;;5053816;28;20702;-58
2023/12/11 02:09:29;;;;;;;1.40;0.55;;;9.00;99.90;;;;;;5067704;28;20208;-58
2023/12/11 02:11:58;;;;;;;2.05;0.55;;;8.90;99.90;;;;;;5055967;28;20261;-58
2023/12/11 02:14:26;;;;;;;1.73;0.57;;;8.90;99.90;;;;;;5061495;28;20229;-60
2023/12/11 02:16:54;;;;;;;0.47;0.40;;;8.90;99.90;;;;;;5061353;28;20317;-59
2023/12/11 02:19:22;;;;;;;2.78;0.50;;;8.80;99.90;;;;;;5053484;28;20229;-59
2023/12/11 02:21:50;;;;;;;2.20;0.50;;;8.80;99.90;;;;;;5062285;28;20675;-57
2023/12/11 02:24:21;;;;;;;4.13;0.63;;;8.80;99.90;;;;;;5065256;28;20197;-58
2023/12/11 02:26:50;;;;;;;2.15;0.80;;;8.80;99.90;;;;;;5064977;28;20295;-60
2023/12/11 02:29:19;;;;;;;1.35;0.40;;;8.70;99.90;;;;;;5068707;28;20252;-58
2023/12/11 02:31:47;;;;;;;0.77;0.40;;;8.70;99.90;;;;;;5066030;28;20241;-59
2023/12/11 02:34:16;;;;;;;4.32;0.40;;;8.70;99.90;;;;;;5060170;28;20226;-58
2023/12/11 02:36:44;;;;;;;0.50;0.30;;;8.60;99.90;;;;;;5068050;28;20209;-59
2023/12/11 02:39:12;;;;;;;2.28;0.45;;;8.50;99.90;;;;;;5048159;28;20201;-59
2023/12/11 02:41:39;;;;;;;1.70;0.50;;;8.40;99.90;;;;;;5071355;28;20259;-58
2023/12/11 02:44:09;;;;;;;1.65;0.50;;;8.40;99.90;;;;;;5061346;28;20217;-59
2023/12/11 02:46:38;;;;;;;2.58;0.63;;;8.40;99.90;;;;;;5059370;28;20266;-59
2023/12/11 02:49:06;;;;;;;0.50;0.50;;;8.30;99.90;;;;;;5059001;28;20640;-58
2023/12/11 02:51:34;;;;;;;3.13;0.55;;;8.30;99.90;;;;;;5059213;28;20639;-57
2023/12/11 02:54:02;;;;;;;2.45;0.52;;;8.20;99.90;;;;;;5055790;28;20229;-58
2023/12/11 02:56:30;;;;;;;4.13;0.90;;;8.20;99.90;;;;;;5067065;28;20198;-58
2023/12/11 02:58:58;;;;;;;3.20;0.82;;;8.20;99.90;;;;;;5070352;28;20201;-60
2023/12/11 03:01:27;;;;;;;3.65;0.60;;;8.10;99.90;;;;;;5063699;28;20197;-60
2023/12/11 03:03:55;;;;;;;2.50;0.70;;;8.00;99.90;;;;;;5072003;28;20236;-58
2023/12/11 03:06:23;;;;;;;8.38;0.70;;;8.00;99.90;;;;;;5072714;28;20209;-58
2023/12/11 03:08:51;;;;;;;3.35;0.80;;;8.10;99.90;;;;;;5061788;28;20209;-58
2023/12/11 03:11:19;;;;;;;5.93;0.65;;;8.10;99.90;;;;;;5068038;28;20202;-58
2023/12/11 03:13:47;;;;;;;5.80;0.65;;;8.00;99.90;;;;;;5051835;28;20226;-60
2023/12/11 03:16:15;;;;;;;2.47;0.50;;;8.00;99.90;;;;;;5064255;28;20263;-58
2023/12/11 03:18:45;;;;;;;2.15;0.60;;;8.10;99.90;;;;;;5070639;28;20201;-58
2023/12/11 03:21:13;;;;;;;0.75;0.60;;;8.20;99.90;;;;;;5055796;28;20293;-58
2023/12/11 03:23:41;;;;;;;5.70;0.60;;;8.20;99.90;;;;;;5064936;28;20229;-58
2023/12/11 03:26:09;;;;;;;4.95;1.00;;;8.30;99.90;;;;;;5071034;28;20210;-59
2023/12/11 03:28:36;;;;;;;2.40;0.60;;;8.30;99.90;;;;;;5069759;28;20208;-59
2023/12/11 03:31:05;;;;;;;4.35;0.90;;;8.30;99.90;;;;;;5072291;28;20205;-60
2023/12/11 03:33:32;;;;;;;0.80;0.50;;;8.30;99.90;;;;;;5071878;28;20221;-60
2023/12/11 03:36:02;;;;;;;5.68;0.82;;;8.40;99.90;;;;;;5055165;28;20230;-59
2023/12/11 03:38:30;;;;;;;5.65;0.60;;;8.40;99.90;;;;;;5071559;28;20201;-58
2023/12/11 03:40:57;;;;;;;3.15;0.70;;;8.40;99.90;;;;;;5066532;28;20241;-58
2023/12/11 03:43:25;;;;;;;2.25;0.60;;;8.40;99.90;;;;;;5062610;28;20698;-59
2023/12/11 03:45:55;;;;;;;2.50;0.65;;;8.50;99.90;;;;;;5068341;28;20292;-59
2023/12/11 03:48:24;;;;;;;3.85;0.90;;;8.50;99.90;;;;;;5059094;28;20202;-58
2023/12/11 03:50:51;;;;;;;1.15;0.80;;;8.60;99.90;;;;;;5059861;28;20202;-57
2023/12/11 03:53:21;;;;;;;2.90;0.52;;;8.60;99.90;;;;;;5059066;28;20275;-58
2023/12/11 03:55:50;;;;;;;2.90;0.80;;;8.60;99.90;;;;;;5057708;28;20234;-59
2023/12/11 03:58:17;;;;;;;3.58;0.90;;;8.60;99.90;;;;;;5047163;28;20229;-59
2023/12/11 04:00:45;;;;;;;4.60;1.00;;;8.60;99.90;;;;;;5063105;28;20209;-59
2023/12/11 04:03:14;;;;;;;5.07;0.80;;;8.60;99.90;;;;;;5062847;28;20221;-58
2023/12/11 04:05:42;;;;;;;3.67;1.10;;;8.70;99.90;;;;;;5064065;28;20697;-58
2023/12/11 04:08:10;;;;;;;6.57;0.70;;;8.70;99.90;;;;;;5068665;28;20263;-59
2023/12/11 04:10:39;;;;;;;6.25;0.70;;;8.70;99.90;;;;;;5051445;28;20244;-59
2023/12/11 04:13:07;;;;;;;5.88;1.05;;;8.70;99.90;;;;;;5061466;28;20229;-58
2023/12/11 04:15:35;;;;;;;5.38;0.70;;;8.60;99.90;;;;;;5061542;28;20224;-59
2023/12/11 04:18:03;;;;;;;4.05;0.70;;;8.60;99.90;;;;;;5060955;28;20220;-59
2023/12/11 04:20:31;;;;;;;5.82;0.80;;;8.60;99.90;;;;;;5063131;28;20201;-58
2023/12/11 04:22:59;;;;;;;3.65;0.60;;;8.70;99.90;;;;;;5064974;28;20760;-57
2023/12/11 04:25:26;;;;;;;6.40;0.98;;;8.70;99.90;;;;;;5057319;28;20230;-58
2023/12/11 04:27:56;;;;;;;5.30;1.02;;;8.70;99.90;;;;;;5059783;28;20209;-60
2023/12/11 04:30:24;;;;;;;3.63;0.65;;;8.70;99.90;;;;;;5058650;28;20202;-60
2023/12/11 04:32:52;;;;;;;3.40;1.02;;;8.70;99.90;;;;;;5057019;28;20328;-59
2023/12/11 04:35:20;;;;;;;2.50;0.82;;;8.70;99.90;;;;;;5054776;28;20213;-60
2023/12/11 04:37:48;;;;;;;3.20;0.77;;;8.70;99.90;;;;;;5061056;28;20209;-58
2023/12/11 04:40:15;;;;;;;3.20;0.82;;;8.80;99.90;;;;;;5069399;28;20201;-58
2023/12/11 04:42:43;;;;;;;5.75;0.80;;;8.80;99.90;;;;;;5065609;28;20268;-58
2023/12/11 04:45:13;;;;;;;4.28;0.80;;;8.80;99.90;;;;;;5062844;28;20209;-58
2023/12/11 04:47:41;;;;;;;2.67;0.90;;;8.80;99.90;;;;;;5065869;28;20717;-59
2023/12/11 04:50:09;;;;;;;3.65;1.00;;;8.80;99.90;;;;;;5060573;28;20259;-58
2023/12/11 04:52:37;;;;;;;3.13;0.95;;;8.80;99.90;;;;;;5068889;28;20275;-58
2023/12/11 04:55:06;;;;;;;3.38;0.73;;;8.80;99.90;;;;;;5060010;28;20221;-58
2023/12/11 04:57:34;;;;;;;4.10;0.88;;;8.90;99.90;;;;;;5068710;28;20255;-58
2023/12/11 05:00:04;;;;;;;5.63;1.00;;;8.80;99.90;;;;;;5056794;28;20705;-58
2023/12/11 05:02:33;;;;;;;4.85;1.02;;;8.80;99.90;;;;;;5061466;28;20229;-58
2023/12/11 05:05:02;;;;;;;3.97;1.10;;;8.80;99.90;;;;;;5062852;28;20230;-59
2023/12/11 05:07:29;;;;;;;6.25;0.98;;;8.80;99.90;;;;;;5059676;28;20637;-59
2023/12/11 05:09:58;;;;;;;6.03;0.90;;;8.80;99.90;;;;;;5071665;28;20228;-59
2023/12/11 05:12:26;;;;;;;11.13;1.23;;;8.80;99.90;;;;;;5059313;28;20221;-59
2023/12/11 05:14:53;;;;;;;2.70;0.80;;;8.80;99.90;;;;;;5059735;28;20210;-59
2023/12/11 05:17:21;;;;;;;6.28;0.88;;;8.70;99.90;;;;;;5057196;28;20274;-59
2023/12/11 05:19:51;;;;;;;6.55;0.73;;;8.70;99.90;;;;;;5071315;28;20559;-59
2023/12/11 05:22:19;;;;;;;10.05;1.20;;;8.70;99.90;;;;;;5065994;28;20228;-58
2023/12/11 05:24:47;;;;;;;4.20;0.88;;;8.70;99.90;;;;;;5054337;28;20251;-59
2023/12/11 05:27:16;;;;;;;7.35;0.95;;;8.70;99.90;;;;;;5056329;28;20735;-59
2023/12/11 05:29:44;;;;;;;7.82;0.93;;;8.70;99.90;;;;;;5063971;28;20251;-59
2023/12/11 05:32:12;;;;;;;8.38;1.25;;;8.60;99.90;;;;;;5061153;28;20248;-58
2023/12/11 05:34:40;;;;;;;5.03;1.05;;;8.60;99.90;;;;;;5056419;28;20202;-58
2023/12/11 05:37:09;;;;;;;7.30;1.10;;;8.60;99.90;;;;;;5070815;28;20217;-58
2023/12/11 05:39:37;;;;;;;12.38;1.42;;;8.60;99.90;;;;;;5068000;28;20642;-60
2023/12/11 05:42:08;;;;;;;6.55;1.30;;;8.70;99.90;;;;;;5069093;28;20563;-59
2023/12/11 05:44:36;;;;;;;5.60;1.25;;;8.60;99.90;;;;;;5053706;28;20252;-60
2023/12/11 05:47:04;;;;;;;7.07;1.05;;;8.60;99.90;;;;;;5058812;28;20290;-60
2023/12/11 05:49:32;;;;;;;8.68;1.25;;;8.60;99.90;;;;;;5066971;28;20578;-58
2023/12/11 05:52:00;;;;;;;6.10;1.35;;;8.60;99.90;;;;;;5064991;28;20279;-58
2023/12/11 05:54:29;;;;;;;4.95;1.73;;;8.60;99.90;;;;;;5064952;28;20215;-62
2023/12/11 05:56:57;;;;;;;4.38;1.15;;;8.60;99.90;;;;;;5058712;28;20257;-58
2023/12/11 05:59:25;;;;;;;3.72;1.00;;;8.60;99.90;;;;;;5065843;28;20615;-57
2023/12/11 06:01:52;;;;;;;5.35;1.00;;;8.70;99.90;;;;;;5062693;28;20228;-57
2023/12/11 06:04:20;;;;;;;10.50;1.40;;;8.60;99.90;;;;;;5066741;28;20671;-58
2023/12/11 06:06:48;;;;;;;4.32;1.10;;;8.60;99.90;;;;;;5053837;28;20230;-59
2023/12/11 06:09:16;;;;;;;4.90;0.77;;;8.50;99.90;;;;;;5064389;28;20210;-59
2023/12/11 06:11:45;;;;;;;9.13;0.88;;;8.50;99.90;;;;;;5055493;28;20241;-58
2023/12/11 06:14:13;;;;;;;6.85;0.75;;;8.40;99.90;;;;;;5057419;28;20228;-58
2023/12/11 06:16:41;;;;;;;3.58;0.82;;;8.40;99.90;;;;;;5058806;28;20213;-58
2023/12/11 06:19:09;;;;;;;9.75;1.52;;;8.30;99.90;;;;;;5069785;28;20202;-58
2023/12/11 06:21:38;;;;;;;7.93;1.48;;;8.30;99.90;;;;;;5069833;28;20262;-58
2023/12/11 06:24:07;;;;;;;6.95;1.20;;;8.30;99.90;;;;;;5069446;28;20605;-60
2023/12/11 06:26:35;;;;;;;9.25;1.50;;;8.30;99.90;;;;;;5057319;28;20201;-58
2023/12/11 06:29:04;;;;;;;5.93;1.30;;;8.40;99.90;;;;;;5052931;28;20229;-59
2023/12/11 06:31:32;;;;;;;4.00;0.98;;;8.40;99.90;;;;;;5052702;28;20202;-59
2023/12/11 06:34:00;;;;;;;9.10;1.38;;;8.50;99.90;;;;;;5060971;28;20238;-58
2023/12/11 06:36:28;;;;;;;3.83;1.10;;;8.40;99.90;;;;;;5064423;28;20243;-58
2023/12/11 06:38:56;;;;;;;3.55;0.90;;;8.40;99.90;;;;;;5066532;28;20210;-58
2023/12/11 06:41:24;;;;;;;2.92;1.13;;;8.40;99.90;;;;;;5069336;28;20262;-57
2023/12/11 06:43:53;;;;;;;5.90;1.27;;;8.50;99.90;;;;;;5056578;28;20682;-59
2023/12/11 06:46:22;;;;;;;6.60;1.05;;;8.50;99.90;;;;;;5062322;28;20206;-58
2023/12/11 06:48:50;;;;;;;4.00;0.90;;;8.50;99.90;;;;;;5056864;28;20228;-57
2023/12/11 06:51:18;;;;;;;4.63;1.00;;;8.50;99.90;;;;;;5062984;28;20418;-57
2023/12/11 06:53:46;;;;;;;2.63;0.75;;;8.50;99.90;;;;;;5065832;28;20226;-58
2023/12/11 06:56:18;;;;;;;6.97;1.20;;;8.50;99.90;;;;;;5066180;28;20247;-58
2023/12/11 06:58:46;;;;;;;4.93;1.08;;;8.50;99.90;;;;;;5065851;28;20706;-58
2023/12/11 07:01:14;;;;;;;6.65;1.20;;;8.50;99.90;;;;;;5068920;28;20213;-59
2023/12/11 07:03:44;;;;;;;4.95;1.08;;;8.40;99.90;;;;;;5061915;28;20271;-68
2023/12/11 07:06:13;;;;;;;2.88;0.70;;;8.40;99.90;;;;;;5068388;28;20626;-58
2023/12/11 07:08:40;;;;;;;4.80;0.80;;;8.30;99.90;;;;;;5068226;28;20205;-68
2023/12/11 07:11:08;;;;;;;3.55;0.60;;;8.30;99.90;;;;;;5063839;28;20210;-59
2023/12/11 07:13:36;;;;;;;4.20;0.90;;;8.20;99.90;;;;;;5051861;28;20221;-60
2023/12/11 07:16:05;;;;;;;5.60;0.88;;;8.10;99.90;;;;;;5060590;28;20221;-58
2023/12/11 07:18:33;;;;;;;2.63;0.60;;;8.00;99.90;;;;;;5067932;28;20663;-57
2023/12/11 07:21:02;;;;;;;9.75;0.90;;;8.00;99.90;;;;;;5065053;28;20210;-58
2023/12/11 07:23:30;;;;;;;2.92;0.75;;;7.90;99.90;;;;;;5060176;28;20311;-64
2023/12/11 07:25:58;;;;;;;7.50;1.00;;;7.90;99.90;;;;;;5071851;28;20284;-58
2023/12/11 07:28:26;;;;;;;2.78;1.08;;;7.90;99.90;;;;;;5072065;28;20242;-61
2023/12/11 07:30:54;;;;;;;5.78;1.45;;;7.90;99.90;;;;;;5069349;28;20282;-61
2023/12/11 07:33:22;;;;;;;2.10;0.90;;;7.90;99.90;;;;;;5062589;28;20222;-58
2023/12/11 07:35:50;;;;;;;7.95;1.17;;;7.90;99.90;;;;;;5067640;28;20224;-60
2023/12/11 07:38:19;;;;;;;5.53;1.33;;;7.90;99.90;;;;;;5071417;28;20206;-58
2023/12/11 07:40:47;;;;;;;1.45;1.08;;;8.00;99.90;;;;;;5061996;28;20252;-59
2023/12/11 07:43:15;;;;;;;3.25;1.20;;;7.90;99.90;;;;;;5084619;22;20253;-59
2023/12/11 07:45:43;;;;;;;3.15;1.25;;;8.00;99.90;;;;;;5044755;28;20236;-59
2023/12/11 07:48:11;;;;;;;4.20;1.20;;;8.00;99.90;;;;;;5051332;28;20206;-59
2023/12/11 07:50:40;;;;;;;3.33;0.98;;;8.00;99.90;;;;;;5051063;28;20202;-59
2023/12/11 07:53:08;;;;;;;5.70;1.50;;;8.00;99.90;;;;;;5051197;28;20251;-59
2023/12/11 07:55:37;;;;;;;6.47;1.30;;;8.00;99.90;;;;;;5069802;28;20229;-59
2023/12/11 07:58:06;;;;;;;5.75;0.98;;;8.00;99.90;;;;;;5070092;28;20319;-59
2023/12/11 08:00:34;;;;;;;6.22;1.35;;;8.00;99.90;;;;;;5070589;28;20206;-59
2023/12/11 08:03:05;;;;;;;4.60;1.00;;;8.10;99.90;;;;;;5066696;28;20201;-59
2023/12/11 08:05:33;;;;;;;4.38;0.95;;;8.20;99.90;;;;;;5070827;28;20212;-59
2023/12/11 08:08:01;;;;;;;5.78;1.17;;;8.30;99.90;;;;;;5070912;28;20718;-59
2023/12/11 08:10:29;;;;;;;5.60;0.90;;;8.50;99.90;;;;;;5071092;28;20236;-59
2023/12/11 08:12:59;;;;;;;8.40;1.15;;;8.60;99.90;;;;;;5071060;28;20250;-59
2023/12/11 08:15:27;;;;;;;9.77;1.25;;;8.70;99.90;;;;;;5068568;28;20201;-60
2023/12/11 08:17:54;;;;;;;7.97;1.77;;;8.70;99.90;;;;;;5070812;28;20225;-61
2023/12/11 08:20:23;;;;;;;9.07;1.38;;;8.80;99.90;;;;;;5070939;28;20678;-61
2023/12/11 08:22:51;;;;;;;5.70;1.05;;;8.90;99.90;;;;;;5071092;28;20208;-61
2023/12/11 08:25:19;;;;;;;7.80;1.20;;;9.00;99.90;;;;;;5070840;28;20228;-61
2023/12/11 08:27:47;;;;;;;5.72;1.20;;;9.10;99.90;;;;;;5072077;28;20232;-61
2023/12/11 08:30:16;;;;;;;9.00;1.63;;;9.30;99.90;;;;;;5071184;28;20257;-61
2023/12/11 08:32:44;;;;;;;9.35;1.38;;;9.40;99.90;;;;;;5070659;28;20264;-61
2023/12/11 08:35:12;;;;;;;7.55;0.98;;;9.40;99.90;;;;;;5067304;28;20239;-62
2023/12/11 08:37:40;;;;;;;6.93;1.20;;;9.50;99.90;;;;;;5069916;28;20261;-60
2023/12/11 08:40:09;;;;;;;4.93;1.20;;;9.60;99.90;;;;;;5071919;28;20209;-61
2023/12/11 08:42:37;;;;;;;7.10;1.15;;;9.80;99.90;;;;;;5068294;28;20316;-60
2023/12/11 08:45:09;;;;;;;8.70;1.13;;;9.80;99.90;;;;;;5065241;28;20233;-61
2023/12/11 08:47:41;;;;;;;10.35;1.58;;;9.90;99.90;;;;;;5072303;28;20225;-60
2023/12/11 08:50:11;;;;;;;12.60;1.42;;;10.00;99.90;;;;;;5071716;28;20209;-61
2023/12/11 08:52:39;;;;;;;8.68;1.50;;;10.00;99.90;;;;;;5071449;28;20574;-60
2023/12/11 08:55:08;;;;;;;3.92;0.98;;;10.10;99.90;;;;;;5070993;28;20706;-60
2023/12/11 08:57:36;;;;;;;13.85;2.03;;;10.10;99.90;;;;;;5071722;28;20228;-60
2023/12/11 09:00:05;;;;;;;6.97;1.65;;;10.10;99.90;;;;;;5072263;28;20520;-61
2023/12/11 09:02:33;;;;;;;5.88;1.35;;;10.10;99.90;;;;;;5068303;28;20248;-60
2023/12/11 09:05:03;;;;;;;9.45;1.50;;;10.10;99.90;;;;;;5067764;28;20260;-60
2023/12/11 09:07:31;;;;;;;5.13;1.45;;;10.10;99.90;;;;;;5071782;28;20231;-60
2023/12/11 09:09:59;;;;;;;8.00;1.58;;;10.10;99.90;;;;;;5072404;28;20220;-60
2023/12/11 09:12:27;;;;;;;12.68;1.63;;;10.10;99.90;;;;;;5072971;28;20209;-60
2023/12/11 09:15:00;;;;;;;10.93;1.65;;;10.10;99.90;;;;;;5068061;28;20278;-60
2023/12/11 09:17:29;;;;;;;12.93;1.58;;;10.20;99.90;;;;;;5074930;28;20235;-60
2023/12/11 09:19:58;;;;;;;13.68;1.60;;;10.20;99.90;;;;;;5072225;28;20278;-60
2023/12/11 09:22:27;;;;;;;11.23;1.85;;;10.20;99.90;;;;;;5069140;28;20693;-60
2023/12/11 09:24:55;;;;;;;9.18;1.70;;;10.20;99.90;;;;;;5070681;28;20576;-61
2023/12/11 09:27:23;;;;;;;11.00;1.83;;;10.20;99.90;;;;;;5073454;28;20197;-60
2023/12/11 09:29:51;;;;;;;7.18;1.40;;;10.10;99.90;;;;;;5074571;28;20208;-60
2023/12/11 09:32:19;;;;;;;9.82;1.40;;;10.10;99.90;;;;;;5074223;28;20667;-60
2023/12/11 09:34:47;;;;;;;9.90;1.80;;;10.10;99.90;;;;;;5073647;28;20226;-60
2023/12/11 09:37:18;;;;;;;10.50;1.50;;;10.20;99.90;;;;;;5073843;28;20201;-60
2023/12/11 09:39:48;;;;;;;12.57;1.83;;;10.30;99.90;;;;;;5074296;28;20201;-60
2023/12/11 09:42:16;;;;;;;9.38;1.85;;;10.40;99.90;;;;;;5074370;28;20223;-60
2023/12/11 09:44:46;;;;;;;10.00;1.65;;;10.50;99.90;;;;;;5066823;28;20315;-60
2023/12/11 09:47:15;;;;;;;6.70;1.75;;;10.70;99.90;;;;;;5073506;28;20235;-60
2023/12/11 09:49:44;;;;;;;9.23;1.67;;;10.90;99.90;;;;;;5074206;28;20202;-60
2023/12/11 09:52:13;;;;;;;13.02;1.67;;;11.20;99.90;;;;;;5074249;28;20216;-60
2023/12/11 09:54:41;;;;;;;11.13;1.38;;;11.40;99.90;;;;;;5073715;28;20228;-60
2023/12/11 09:57:12;;;;;;;11.18;2.20;;;11.50;99.90;;;;;;5073759;28;20201;-60
2023/12/11 09:59:39;;;;;;;7.00;1.98;;;11.60;99.90;;;;;;5065873;28;20202;-60
2023/12/11 10:02:10;;;;;;;8.43;1.70;;;11.60;99.90;;;;;;5073979;28;20233;-60
2023/12/11 10:04:38;;;;;;;7.35;1.77;;;11.60;99.90;;;;;;5073698;28;20225;-60
2023/12/11 10:07:05;;;;;;;10.55;2.03;;;11.70;99.90;;;;;;5073926;28;20201;-60
2023/12/11 10:09:34;;;;;;;16.98;2.45;;;11.80;99.90;;;;;;5073526;28;20762;-60
2023/12/11 10:12:03;;;;;;;13.90;2.33;;;11.90;99.90;;;;;;5073683;28;20259;-61
2023/12/11 10:14:33;;;;;;;9.20;2.20;;;12.00;99.90;;;;;;5073304;28;20654;-61
2023/12/11 10:17:15;;;;;;;14.63;2.20;;;12.10;99.90;;;;;;5068906;28;20292;-60
2023/12/11 10:19:42;;;;;;;13.85;1.75;;;12.10;99.90;;;;;;5065943;28;20349;-60
2023/12/11 10:22:12;;;;;;;13.38;2.03;;;12.00;99.90;;;;;;5073597;28;20209;-61
2023/12/11 10:24:42;;;;;;;14.90;2.78;;;12.00;99.90;;;;;;5070249;28;20232;-60
2023/12/11 10:27:10;;;;;;;15.80;2.33;;;12.00;99.90;;;;;;5073652;28;20209;-60
2023/12/11 10:29:40;;;;;;;8.13;1.52;;;12.00;99.90;;;;;;5065060;28;20544;-60
2023/12/11 10:32:08;;;;;;;12.63;2.25;;;12.10;99.90;;;;;;5073319;28;20229;-60
2023/12/11 10:34:43;;;;;;;10.48;2.20;;;12.30;99.90;;;;;;5072709;28;20225;-60
2023/12/11 10:37:13;;;;;;;12.73;2.17;;;12.20;99.90;;;;;;5072345;28;20663;-60
2023/12/11 10:39:51;;;;;;;8.05;2.05;;;12.20;99.90;;;;;;5072883;28;20227;-60
2023/12/11 10:42:19;;;;;;;12.55;1.90;;;12.20;99.90;;;;;;5073366;28;20212;-60
2023/12/11 10:44:48;;;;;;;14.70;2.25;;;12.10;99.90;;;;;;5065599;28;20233;-60
2023/12/11 10:47:21;;;;;;;10.88;1.75;;;12.10;99.90;;;;;;5072841;28;20197;-60
2023/12/11 10:49:49;;;;;;;12.18;1.70;;;12.10;99.90;;;;;;5072472;28;20205;-60
2023/12/11 10:52:17;;;;;;;13.68;1.45;;;12.10;99.90;;;;;;5073029;28;20217;-60
2023/12/11 10:54:46;;;;;;;12.20;1.83;;;12.10;99.90;;;;;;5072566;28;20248;-60
2023/12/11 10:57:14;;;;;;;9.18;2.10;;;12.00;99.90;;;;;;5072715;28;20209;-61
2023/12/11 10:59:44;;;;;;;10.88;2.08;;;12.00;99.90;;;;;;5064779;28;20710;-60
2023/12/11 11:02:14;;;;;;;12.07;1.77;;;12.00;99.90;;;;;;5072400;28;20219;-60
2023/12/11 11:04:43;;;;;;;14.63;2.35;;;12.10;99.90;;;;;;5072342;28;20259;-60
2023/12/11 11:07:14;;;;;;;7.22;2.03;;;12.10;99.90;;;;;;5072260;28;20679;-60
2023/12/11 11:09:49;;;;;;;9.48;2.03;;;12.10;99.90;;;;;;5064370;28;20229;-60
2023/12/11 11:12:19;;;;;;;13.32;2.40;;;12.10;99.90;;;;;;5072289;28;20713;-60
2023/12/11 11:14:48;;;;;;;10.65;1.85;;;12.10;99.90;;;;;;5071742;28;20316;-60
2023/12/11 11:17:17;;;;;;;12.95;2.33;;;12.10;99.90;;;;;;5072237;28;20288;-60
2023/12/11 11:20:12;;;;;;;9.07;1.90;;;12.10;99.90;;;;;;5071998;28;20256;-60
2023/12/11 11:22:40;;;;;;;12.15;1.95;;;12.10;99.90;;;;;;5072515;28;20205;-60
2023/12/11 11:25:36;;;;;;;11.98;2.10;;;12.10;99.90;;;;;;5071813;28;20252;-60
2023/12/11 11:28:05;;;;;;;10.13;2.00;;;12.10;99.90;;;;;;5020547;28;20610;-60
2023/12/11 11:30:50;;;;;;;9.25;1.60;;;12.10;99.90;;;;;;5065682;28;20205;-60
2023/12/11 11:33:21;;;;;;;10.10;1.83;;;12.10;99.90;;;;;;5063623;28;20228;-60
2023/12/11 11:35:51;;;;;;;9.35;2.10;;;12.10;99.90;;;;;;5070006;28;20201;-60
2023/12/11 11:38:20;;;;;;;15.15;2.03;;;12.10;99.90;;;;;;5071848;28;20205;-60
2023/12/11 11:40:51;;;;;;;7.32;2.05;;;12.10;99.90;;;;;;5071591;28;20270;-60
2023/12/11 11:43:19;;;;;;;9.25;1.90;;;12.10;99.90;;;;;;5073883;28;20293;-60
2023/12/11 11:45:47;;;;;;;14.15;2.45;;;12.20;99.90;;;;;;5070532;28;20206;-60
2023/12/11 11:48:15;;;;;;;10.02;1.73;;;12.10;99.90;;;;;;5076597;28;20271;-60
2023/12/11 11:50:54;;;;;;;11.02;2.00;;;12.10;99.90;;;;;;5077560;28;20543;-60
2023/12/11 11:53:22;;;;;;;12.68;2.08;;;12.10;99.90;;;;;;5078091;28;20225;-60
2023/12/11 11:55:50;;;;;;;8.65;1.80;;;12.10;99.90;;;;;;5078153;28;20248;-60
2023/12/11 11:58:18;;;;;;;7.65;1.55;;;12.20;99.90;;;;;;5077327;28;20277;-60
2023/12/11 12:00:46;;;;;;;16.00;1.83;;;12.20;99.90;;;;;;5076911;28;20240;-60
2023/12/11 12:03:15;;;;;;;7.05;1.70;;;12.20;99.90;;;;;;5078096;28;20201;-60
2023/12/11 12:05:59;;;;;;;12.93;1.92;;;12.20;99.90;;;;;;5077804;28;20215;-60
2023/12/11 12:08:27;;;;;;;11.13;2.03;;;12.20;99.90;;;;;;5077129;28;20213;-60
2023/12/11 12:10:56;;;;;;;13.48;1.80;;;12.30;99.90;;;;;;5078038;28;20213;-60
2023/12/11 12:13:24;;;;;;;5.70;1.33;;;12.30;99.90;;;;;;5077695;28;20275;-60
2023/12/11 12:15:52;;;;;;;12.52;1.85;;;12.30;99.90;;;;;;5077547;28;20235;-60
2023/12/11 12:18:21;;;;;;;7.07;1.42;;;12.30;99.90;;;;;;5078607;28;20208;-60
2023/12/11 12:21:03;;;;;;;11.13;1.92;;;12.30;99.90;;;;;;5078612;28;20225;-60
2023/12/11 12:23:31;;;;;;;11.68;2.05;;;12.30;99.90;;;;;;5077641;28;20221;-60
2023/12/11 12:25:59;;;;;;;9.75;1.55;;;12.30;99.90;;;;;;5078546;28;20208;-60
2023/12/11 12:28:27;;;;;;;7.95;1.13;;;12.20;99.90;;;;;;5078680;28;20223;-60
2023/12/11 12:30:56;;;;;;;5.90;1.27;;;12.20;99.90;;;;;;5079697;28;20201;-60
2023/12/11 12:33:24;;;;;;;12.00;2.00;;;12.20;99.90;;;;;;5078277;28;20220;-60
2023/12/11 12:35:51;;;;;;;8.38;1.27;;;12.20;99.90;;;;;;5077751;28;20285;-60
2023/12/11 12:38:21;;;;;;;7.63;1.60;;;12.20;99.90;;;;;;5075724;28;20768;-60
2023/12/11 12:40:51;;;;;;;10.13;1.88;;;12.20;99.90;;;;;;5071448;28;20225;-60
2023/12/11 12:43:19;;;;;;;9.52;1.58;;;12.20;99.90;;;;;;5070940;28;20313;-60
2023/12/11 12:45:48;;;;;;;10.27;2.00;;;12.20;99.90;;;;;;5063108;28;20201;-60
2023/12/11 12:48:15;;;;;;;7.18;1.73;;;12.10;99.90;;;;;;5071361;28;20205;-60
2023/12/11 12:50:43;;;;;;;9.82;2.22;;;12.20;99.90;;;;;;5070702;28;20359;-60
2023/12/11 12:53:13;;;;;;;12.73;1.90;;;12.10;99.90;;;;;;5071083;28;20201;-60
2023/12/11 12:55:42;;;;;;;6.85;1.55;;;12.10;99.90;;;;;;5071230;28;20288;-60
2023/12/11 12:58:11;;;;;;;8.65;1.77;;;12.10;99.90;;;;;;5071009;28;20685;-60
2023/12/11 13:00:43;;;;;;;8.68;1.80;;;12.10;99.90;;;;;;5070803;28;20709;-60